createdAt,value
2023-03-13T00:01:25.131Z,94849.91
2023-03-13T00:03:27.216Z,94855.91
2023-03-13T00:05:28.668Z,94866.00
2023-03-13T00:07:30.201Z,94858.69
2023-03-13T00:09:31.695Z,94855.59
2023-03-13T00:11:33.512Z,94850.91
2023-03-13T00:13:35.317Z,94861.88
2023-03-13T00:15:36.833Z,94860.78
2023-03-13T00:17:38.339Z,94857.00
2023-03-13T00:19:39.793Z,94869.81
2023-03-13T00:21:41.604Z,94870.88
2023-03-13T00:23:43.259Z,94869.56
2023-03-13T00:25:44.858Z,94870.28
2023-03-13T00:27:46.380Z,94867.41
2023-03-13T00:29:47.946Z,94868.94
2023-03-13T00:31:49.500Z,94873.31
2023-03-13T00:33:53.411Z,94878.72
2023-03-13T00:35:58.757Z,94873.50
2023-03-13T00:38:00.468Z,94868.81
2023-03-13T00:40:02.013Z,94874.06
2023-03-13T00:42:04.031Z,94872.41
2023-03-13T00:44:05.542Z,94873.22
2023-03-13T00:46:07.441Z,94873.69
2023-03-13T00:48:09.028Z,94871.91
2023-03-13T00:50:10.818Z,94873.88
2023-03-13T00:52:12.361Z,94873.34
2023-03-13T00:54:13.854Z,94866.31
2023-03-13T00:56:16.162Z,94869.63
2023-03-13T00:58:17.731Z,94869.81
2023-03-13T01:00:19.535Z,94869.63
2023-03-13T01:02:21.081Z,94870.09
2023-03-13T01:04:22.665Z,94864.69
2023-03-13T01:06:25.934Z,94871.88
2023-03-13T01:08:27.726Z,94871.88
2023-03-13T01:10:29.218Z,94874.22
2023-03-13T01:12:30.715Z,94870.47
2023-03-13T01:14:32.275Z,94863.22
2023-03-13T01:16:34.477Z,94865.34
2023-03-13T01:18:36.631Z,94862.03
2023-03-13T01:20:38.622Z,94866.63
2023-03-13T01:22:40.202Z,94861.31
2023-03-13T01:24:41.778Z,94870.16
2023-03-13T01:26:43.258Z,94867.50
2023-03-13T01:28:44.924Z,94869.47
2023-03-13T01:30:46.412Z,94876.00
2023-03-13T01:32:47.926Z,94873.63
2023-03-13T01:34:49.413Z,94877.78
2023-03-13T01:36:52.415Z,94882.50
2023-03-13T01:38:54.959Z,94879.31
2023-03-13T01:40:56.515Z,94878.06
2023-03-13T01:42:59.122Z,94881.59
2023-03-13T01:45:00.581Z,94883.13
2023-03-13T01:47:02.134Z,94889.03
2023-03-13T01:49:17.492Z,94877.03
2023-03-13T01:51:23.819Z,94887.97
2023-03-13T01:53:25.261Z,94884.97
2023-03-13T01:55:26.772Z,94877.81
2023-03-13T01:57:29.758Z,94885.47
2023-03-13T01:59:33.016Z,94883.56
2023-03-13T02:01:34.679Z,94885.16
2023-03-13T02:03:36.213Z,94886.69
2023-03-13T02:05:37.750Z,94886.69
2023-03-13T02:07:40.464Z,94882.44
2023-03-13T02:09:42.376Z,94883.28
2023-03-13T02:11:57.828Z,94877.25
2023-03-13T02:13:59.405Z,94881.59
2023-03-13T02:16:01.209Z,94889.22
2023-03-13T02:18:02.841Z,94896.97
2023-03-13T02:20:05.149Z,94900.75
2023-03-13T02:22:06.628Z,94898.25
2023-03-13T02:24:08.152Z,94903.84
2023-03-13T02:26:09.643Z,94904.03
2023-03-13T02:28:46.389Z,94907.00
2023-03-13T02:30:48.500Z,94907.19
2023-03-13T02:32:50.108Z,94916.09
2023-03-13T02:34:51.823Z,94918.97
2023-03-13T02:36:53.339Z,94921.03
2023-03-13T02:38:59.754Z,94923.50
2023-03-13T02:41:01.596Z,94932.31
2023-03-13T02:43:05.864Z,94931.59
2023-03-13T02:45:07.669Z,94940.09
2023-03-13T02:47:10.033Z,94947.53
2023-03-13T02:49:17.349Z,94951.69
2023-03-13T02:51:18.751Z,94940.09
2023-03-13T02:53:20.282Z,94943.81
2023-03-13T02:55:25.328Z,94950.56
2023-03-13T02:57:26.866Z,94948.38
2023-03-13T02:59:28.379Z,94944.13
2023-03-13T03:01:29.872Z,94953.56
2023-03-13T03:03:31.341Z,94945.47
2023-03-13T03:05:32.897Z,94953.44
2023-03-13T03:07:34.398Z,94951.38
2023-03-13T03:09:35.880Z,94948.06
2023-03-13T03:11:38.948Z,94946.94
2023-03-13T03:13:41.259Z,94947.53
2023-03-13T03:15:42.795Z,94958.09
2023-03-13T03:17:44.385Z,94966.78
2023-03-13T03:19:45.830Z,94972.53
2023-03-13T03:21:49.566Z,94985.13
2023-03-13T03:23:51.526Z,94983.22
2023-03-13T03:25:53.086Z,94996.84
2023-03-13T03:27:54.515Z,94998.53
2023-03-13T03:29:55.966Z,95003.22
2023-03-13T03:31:57.484Z,94997.50
2023-03-13T03:33:59.061Z,94990.59
2023-03-13T03:36:01.412Z,94987.25
2023-03-13T03:38:02.906Z,94990.38
2023-03-13T03:40:06.643Z,94995.09
2023-03-13T03:42:09.704Z,95004.88
2023-03-13T03:44:11.204Z,95008.63
2023-03-13T03:46:12.815Z,95015.81
2023-03-13T03:48:14.401Z,95024.03
2023-03-13T03:50:16.282Z,95027.78
2023-03-13T03:52:18.197Z,95031.50
2023-03-13T03:54:19.649Z,95030.47
2023-03-13T03:56:21.190Z,95025.47
2023-03-13T03:58:22.771Z,95029.84
2023-03-13T04:00:24.300Z,95032.22
2023-03-13T04:02:25.872Z,95041.63
2023-03-13T04:04:27.454Z,95034.69
2023-03-13T04:06:28.919Z,95038.31
2023-03-13T04:08:30.453Z,95041.72
2023-03-13T04:10:31.944Z,95048.91
2023-03-13T04:12:33.406Z,95052.22
2023-03-13T04:14:34.875Z,95049.19
2023-03-13T04:16:36.499Z,95051.84
2023-03-13T04:18:38.038Z,95058.13
2023-03-13T04:20:39.612Z,95064.34
2023-03-13T04:22:42.222Z,95060.66
2023-03-13T04:24:43.676Z,95063.44
2023-03-13T04:26:45.126Z,95063.16
2023-03-13T04:28:46.628Z,95071.91
2023-03-13T04:30:48.139Z,95070.41
2023-03-13T04:32:51.199Z,95070.69
2023-03-13T04:34:53.055Z,95077.03
2023-03-13T04:36:55.751Z,95080.69
2023-03-13T04:38:57.334Z,95090.72
2023-03-13T04:40:58.806Z,95092.13
2023-03-13T04:43:00.306Z,95097.09
2023-03-13T04:45:01.818Z,95097.47
2023-03-13T04:47:03.409Z,95097.97
2023-03-13T04:49:06.527Z,95106.38
2023-03-13T04:51:09.444Z,95107.75
2023-03-13T04:53:10.952Z,95106.09
2023-03-13T04:55:12.459Z,95107.75
2023-03-13T04:57:13.947Z,95108.06
2023-03-13T04:59:15.576Z,95101.78
2023-03-13T05:01:17.091Z,95104.38
2023-03-13T05:03:18.596Z,95106.13
2023-03-13T05:05:20.183Z,95106.78
2023-03-13T05:07:21.749Z,95100.56
2023-03-13T05:09:23.341Z,95094.19
2023-03-13T05:11:24.958Z,95100.06
2023-03-13T05:13:26.529Z,95105.16
2023-03-13T05:15:27.979Z,95109.09
2023-03-13T05:17:29.550Z,95117.63
2023-03-13T05:19:31.076Z,95119.44
2023-03-13T05:21:32.515Z,95123.16
2023-03-13T05:23:34.008Z,95136.22
2023-03-13T05:25:35.504Z,95139.66
2023-03-13T05:27:36.948Z,95138.97
2023-03-13T05:29:38.386Z,95135.78
2023-03-13T05:32:04.771Z,95146.41
2023-03-13T05:34:06.242Z,95142.31
2023-03-13T05:36:07.966Z,95145.38
2023-03-13T05:38:09.410Z,95139.66
2023-03-13T05:40:11.279Z,95144.19
2023-03-13T05:42:12.809Z,95145.44
2023-03-13T05:44:14.319Z,95141.00
2023-03-13T05:46:15.797Z,95141.16
2023-03-13T05:48:17.315Z,95135.28
2023-03-13T05:50:19.042Z,95140.94
2023-03-13T05:52:20.624Z,95147.41
2023-03-13T05:54:22.153Z,95143.13
2023-03-13T05:56:23.630Z,95150.88
2023-03-13T05:58:25.129Z,95153.69
2023-03-13T06:00:26.698Z,95150.38
2023-03-13T06:02:28.124Z,95164.06
2023-03-13T06:04:29.792Z,95160.88
2023-03-13T06:06:31.325Z,95154.78
2023-03-13T06:08:32.814Z,95155.59
2023-03-13T06:10:34.307Z,95158.19
2023-03-13T06:12:36.118Z,95158.69
2023-03-13T06:14:40.764Z,95162.41
2023-03-13T06:16:42.294Z,95149.78
2023-03-13T06:18:43.840Z,95155.78
2023-03-13T06:20:45.302Z,95165.13
2023-03-13T06:22:46.861Z,95164.78
2023-03-13T06:24:49.698Z,95150.69
2023-03-13T06:26:51.591Z,95159.81
2023-03-13T06:28:53.134Z,95166.84
2023-03-13T06:30:55.371Z,95170.25
2023-03-13T06:32:58.040Z,95164.03
2023-03-13T06:34:59.629Z,95153.00
2023-03-13T06:37:01.191Z,95143.56
2023-03-13T06:39:03.264Z,95145.75
2023-03-13T06:41:04.900Z,95138.50
2023-03-13T06:43:06.378Z,95147.81
2023-03-13T06:45:08.263Z,95143.13
2023-03-13T06:47:09.859Z,95149.03
2023-03-13T06:49:11.594Z,95150.50
2023-03-13T06:51:13.955Z,95151.34
2023-03-13T06:53:16.981Z,95159.56
2023-03-13T06:55:18.859Z,95159.34
2023-03-13T06:57:20.306Z,95155.22
2023-03-13T06:59:21.758Z,95150.25
2023-03-13T07:01:23.452Z,95150.97
2023-03-13T07:03:25.056Z,95147.72
2023-03-13T07:05:26.643Z,95151.03
2023-03-13T07:07:32.136Z,95144.22
2023-03-13T07:09:34.046Z,95151.84
2023-03-13T07:11:35.495Z,95151.00
2023-03-13T07:13:37.077Z,95154.66
2023-03-13T07:15:38.558Z,95153.72
2023-03-13T07:17:40.078Z,95147.91
2023-03-13T07:19:41.706Z,95145.09
2023-03-13T07:21:44.274Z,95140.69
2023-03-13T07:23:45.869Z,95144.41
2023-03-13T07:25:57.332Z,95137.94
2023-03-13T07:28:01.125Z,95134.06
2023-03-13T07:30:02.655Z,95135.56
2023-03-13T07:32:04.260Z,95125.78
2023-03-13T07:34:05.837Z,95130.25
2023-03-13T07:36:09.490Z,95133.50
2023-03-13T07:38:11.312Z,95138.03
2023-03-13T07:40:13.315Z,95144.22
2023-03-13T07:42:14.757Z,95138.91
2023-03-13T07:44:16.287Z,95142.72
2023-03-13T07:46:21.766Z,95142.06
2023-03-13T07:48:24.029Z,95140.19
2023-03-13T07:50:25.630Z,95144.97
2023-03-13T07:52:28.059Z,95142.75
2023-03-13T07:54:29.588Z,95142.59
2023-03-13T07:56:31.089Z,95135.63
2023-03-13T07:58:34.163Z,95138.41
2023-03-13T08:00:35.624Z,95129.38
2023-03-13T08:02:37.169Z,95124.44
2023-03-13T08:04:38.696Z,95123.72
2023-03-13T08:06:41.188Z,95121.47
2023-03-13T08:08:43.110Z,95115.72
2023-03-13T08:10:45.208Z,95122.84
2023-03-13T08:13:31.070Z,95122.81
2023-03-13T08:15:32.681Z,95117.44
2023-03-13T08:17:34.266Z,95120.84
2023-03-13T08:19:35.694Z,95120.81
2023-03-13T08:21:37.274Z,95125.75
2023-03-13T08:23:39.007Z,95127.13
2023-03-13T08:25:43.103Z,95130.00
2023-03-13T08:27:44.604Z,95134.31
2023-03-13T08:29:46.119Z,95131.16
2023-03-13T08:31:48.298Z,95134.53
2023-03-13T08:33:49.894Z,95129.59
2023-03-13T08:35:51.419Z,95131.13
2023-03-13T08:37:52.973Z,95140.19
2023-03-13T08:39:56.715Z,95138.47
2023-03-13T08:41:58.249Z,95132.03
2023-03-13T08:43:59.846Z,95124.69
2023-03-13T08:46:01.409Z,95126.13
2023-03-13T08:48:02.914Z,95122.81
2023-03-13T08:50:04.667Z,95126.59
2023-03-13T08:52:06.613Z,95118.75
2023-03-13T08:54:08.211Z,95108.44
2023-03-13T08:56:10.662Z,95114.16
2023-03-13T08:58:12.181Z,95110.41
2023-03-13T09:00:14.198Z,95117.28
2023-03-13T09:02:20.066Z,95107.69
2023-03-13T09:04:21.711Z,95113.69
2023-03-13T09:06:23.262Z,95112.59
2023-03-13T09:08:24.927Z,95110.81
2023-03-13T09:10:26.462Z,95107.94
2023-03-13T09:12:31.051Z,95119.59
2023-03-13T09:14:35.146Z,95114.00
2023-03-13T09:16:38.144Z,95105.44
2023-03-13T09:18:39.838Z,95105.25
2023-03-13T09:20:43.273Z,95099.59
2023-03-13T09:22:45.154Z,95105.16
2023-03-13T09:24:46.605Z,95104.44
2023-03-13T09:27:00.450Z,95099.63
2023-03-13T09:29:02.816Z,95094.75
2023-03-13T09:31:23.752Z,95102.16
2023-03-13T09:33:25.411Z,95110.59
2023-03-13T09:35:26.975Z,95111.00
2023-03-13T09:37:28.471Z,95119.34
2023-03-13T09:39:29.960Z,95111.56
2023-03-13T09:41:37.792Z,95110.06
2023-03-13T09:44:08.714Z,95107.06
2023-03-13T09:46:24.134Z,95110.22
2023-03-13T09:48:30.124Z,95102.56
2023-03-13T09:50:35.529Z,95089.03
2023-03-13T09:52:41.012Z,95095.38
2023-03-13T09:54:44.097Z,95093.66
2023-03-13T09:56:46.671Z,95087.31
2023-03-13T09:58:55.361Z,95088.56
2023-03-13T10:01:03.293Z,95094.75
2023-03-13T10:03:04.747Z,95092.94
2023-03-13T10:05:26.499Z,95085.09
2023-03-13T10:07:27.993Z,95083.72
2023-03-13T10:09:32.708Z,95091.72
2023-03-13T10:11:38.878Z,95079.97
2023-03-13T10:13:43.428Z,95077.13
2023-03-13T10:15:57.753Z,95067.09
2023-03-13T10:17:59.907Z,95069.38
2023-03-13T10:20:08.452Z,95059.72
2023-03-13T10:22:19.998Z,95055.69
2023-03-13T10:24:27.252Z,95058.31
2023-03-13T10:26:29.824Z,95053.88
2023-03-13T10:28:31.392Z,95039.44
2023-03-13T10:30:35.520Z,95034.94
2023-03-13T10:32:37.085Z,95040.69
2023-03-13T10:34:51.499Z,95040.41
2023-03-13T10:36:59.821Z,95027.22
2023-03-13T10:39:01.328Z,95026.41
2023-03-13T10:41:07.874Z,95020.25
2023-03-13T10:43:22.240Z,95022.59
2023-03-13T10:45:25.308Z,95013.84
2023-03-13T10:47:27.365Z,95009.91
2023-03-13T10:49:29.008Z,95013.88
2023-03-13T10:51:33.663Z,95010.88
2023-03-13T10:53:35.418Z,95013.88
2023-03-13T10:55:37.010Z,95008.38
2023-03-13T10:57:38.439Z,95007.03
2023-03-13T10:59:40.676Z,95014.16
2023-03-13T11:01:42.334Z,95005.41
2023-03-13T11:03:44.448Z,94998.94
2023-03-13T11:05:58.981Z,94991.91
2023-03-13T11:08:07.512Z,94998.25
2023-03-13T11:10:17.786Z,95000.31
2023-03-13T11:12:20.530Z,94992.88
2023-03-13T11:14:22.867Z,94996.34
2023-03-13T11:16:26.399Z,94985.84
2023-03-13T11:18:33.199Z,94972.78
2023-03-13T11:20:35.280Z,94984.03
2023-03-13T11:22:46.015Z,94979.06
2023-03-13T11:24:53.309Z,94974.84
2023-03-13T11:27:13.673Z,94974.34
2023-03-13T11:29:20.753Z,94966.19
2023-03-13T11:31:25.468Z,94968.91
2023-03-13T11:33:35.156Z,94960.50
2023-03-13T11:35:36.664Z,94962.75
2023-03-13T11:37:38.134Z,94957.00
2023-03-13T11:39:48.572Z,94946.66
2023-03-13T11:41:56.664Z,94950.53
2023-03-13T11:44:05.234Z,94940.97
2023-03-13T11:46:06.769Z,94938.09
2023-03-13T11:48:20.401Z,94926.09
2023-03-13T11:50:24.677Z,94932.41
2023-03-13T11:52:29.233Z,94923.41
2023-03-13T11:54:35.578Z,94919.97
2023-03-13T11:56:37.081Z,94917.78
2023-03-13T11:58:57.145Z,94910.00
2023-03-13T12:01:04.583Z,94910.22
2023-03-13T12:03:10.204Z,94897.59
2023-03-13T12:05:13.373Z,94904.66
2023-03-13T12:07:14.874Z,94896.34
2023-03-13T12:09:17.333Z,94889.22
2023-03-13T12:11:18.789Z,94895.88
2023-03-13T12:13:21.495Z,94891.00
2023-03-13T12:15:30.359Z,94883.97
2023-03-13T12:17:36.093Z,94881.53
2023-03-13T12:19:39.911Z,94884.47
2023-03-13T12:21:53.477Z,94879.38
2023-03-13T12:23:58.190Z,94882.03
2023-03-13T12:26:02.924Z,94872.88
2023-03-13T12:28:24.872Z,94875.88
2023-03-13T12:30:43.242Z,94870.53
2023-03-13T12:32:50.872Z,94874.19
2023-03-13T12:35:08.557Z,94878.69
2023-03-13T12:37:15.336Z,94879.16
2023-03-13T12:39:26.080Z,94872.19
2023-03-13T12:41:31.587Z,94873.69
2023-03-13T12:43:33.772Z,94877.13
2023-03-13T12:45:36.086Z,94874.53
2023-03-13T12:47:54.516Z,94875.88
2023-03-13T12:50:16.305Z,94877.13
2023-03-13T12:52:24.054Z,94871.13
2023-03-13T12:54:28.398Z,94873.78
2023-03-13T12:56:29.878Z,94874.97
2023-03-13T12:58:35.356Z,94882.53
2023-03-13T13:00:39.912Z,94881.56
2023-03-13T13:02:41.608Z,94881.13
2023-03-13T13:04:44.559Z,94875.09
2023-03-13T13:06:55.863Z,94882.66
2023-03-13T13:09:07.744Z,94880.88
2023-03-13T13:11:27.951Z,94873.34
2023-03-13T13:13:31.279Z,94877.03
2023-03-13T13:15:32.865Z,94874.78
2023-03-13T13:17:43.384Z,94868.53
2023-03-13T13:19:46.439Z,94874.69
2023-03-13T13:21:48.085Z,94867.78
2023-03-13T13:23:53.973Z,94869.59
2023-03-13T13:25:56.368Z,94868.13
2023-03-13T13:28:10.821Z,94860.38
2023-03-13T13:30:18.579Z,94857.69
2023-03-13T13:32:20.093Z,94864.66
2023-03-13T13:34:36.438Z,94859.66
2023-03-13T13:36:41.883Z,94853.09
2023-03-13T13:38:43.500Z,94854.19
2023-03-13T13:41:03.683Z,94854.63
2023-03-13T13:43:05.514Z,94852.25
2023-03-13T13:45:16.085Z,94854.44
2023-03-13T13:47:22.946Z,94853.09
2023-03-13T13:49:33.619Z,94848.88
2023-03-13T13:51:36.390Z,94843.88
2023-03-13T13:53:54.384Z,94851.00
2023-03-13T13:55:58.706Z,94843.44
2023-03-13T13:58:04.540Z,94840.72
2023-03-13T14:00:22.373Z,94842.28
2023-03-13T14:02:24.961Z,94840.28
2023-03-13T14:04:45.268Z,94839.47
2023-03-13T14:06:48.083Z,94841.56
2023-03-13T14:08:49.544Z,94825.25
2023-03-13T14:11:05.146Z,94837.63
2023-03-13T14:13:17.332Z,94832.38
2023-03-13T14:15:21.850Z,94838.72
2023-03-13T14:17:23.403Z,94833.94
2023-03-13T14:19:25.159Z,94833.00
2023-03-13T14:21:27.346Z,94828.97
2023-03-13T14:23:49.084Z,94836.19
2023-03-13T14:25:50.732Z,94828.31
2023-03-13T14:27:52.809Z,94831.47
2023-03-13T14:30:09.207Z,94835.06
2023-03-13T14:32:10.814Z,94832.19
2023-03-13T14:34:12.659Z,94822.31
2023-03-13T14:36:14.139Z,94833.38
2023-03-13T14:38:19.611Z,94827.03
2023-03-13T14:40:24.392Z,94830.78
2023-03-13T14:42:25.887Z,94826.63
2023-03-13T14:44:28.712Z,94829.94
2023-03-13T14:46:31.704Z,94823.72
2023-03-13T14:48:33.507Z,94827.50
2023-03-13T14:50:35.054Z,94824.75
2023-03-13T14:52:37.116Z,94824.44
2023-03-13T14:54:52.060Z,94813.84
2023-03-13T14:57:11.909Z,94825.03
2023-03-13T14:59:17.562Z,94815.03
2023-03-13T15:01:26.578Z,94816.03
2023-03-13T15:03:29.452Z,94812.75
2023-03-13T15:05:31.723Z,94820.03
2023-03-13T15:07:43.096Z,94821.00
2023-03-13T15:09:45.009Z,94816.19
2023-03-13T15:11:54.889Z,94814.34
2023-03-13T15:13:56.816Z,94817.28
2023-03-13T15:15:58.671Z,94814.94
2023-03-13T15:18:00.282Z,94815.03
2023-03-13T15:20:01.841Z,94820.63
2023-03-13T15:22:03.339Z,94824.13
2023-03-13T15:24:14.313Z,94824.78
2023-03-13T15:26:15.784Z,94827.88
2023-03-13T15:28:18.339Z,94834.78
2023-03-13T15:30:21.170Z,94825.94
2023-03-13T15:32:22.999Z,94831.78
2023-03-13T15:34:25.585Z,94837.31
2023-03-13T15:36:27.680Z,94843.25
2023-03-13T15:38:29.204Z,94836.06
2023-03-13T15:40:33.471Z,94839.88
2023-03-13T15:42:35.016Z,94842.16
2023-03-13T15:44:36.602Z,94834.59
2023-03-13T15:46:38.120Z,94836.25
2023-03-13T15:48:40.717Z,94838.22
2023-03-13T15:50:42.781Z,94845.91
2023-03-13T15:52:44.488Z,94841.47
2023-03-13T15:54:46.156Z,94842.63
2023-03-13T15:56:48.081Z,94839.34
2023-03-13T15:58:49.973Z,94834.56
2023-03-13T16:00:51.684Z,94836.53
2023-03-13T16:02:53.437Z,94836.53
2023-03-13T16:04:56.007Z,94833.75
2023-03-13T16:06:58.142Z,94822.13
2023-03-13T16:09:00.492Z,94825.72
2023-03-13T16:11:02.043Z,94824.41
2023-03-13T16:13:03.601Z,94820.81
2023-03-13T16:15:05.368Z,94820.47
2023-03-13T16:17:16.765Z,94814.09
2023-03-13T16:19:18.237Z,94810.28
2023-03-13T16:21:21.200Z,94812.59
2023-03-13T16:23:22.667Z,94823.22
2023-03-13T16:25:24.691Z,94816.81
2023-03-13T16:27:27.233Z,94815.16
2023-03-13T16:29:28.694Z,94820.72
2023-03-13T16:31:31.609Z,94818.06
2023-03-13T16:33:33.167Z,94813.63
2023-03-13T16:35:34.742Z,94817.19
2023-03-13T16:37:36.249Z,94824.03
2023-03-13T16:39:37.760Z,94825.94
2023-03-13T16:41:39.296Z,94830.84
2023-03-13T16:43:40.781Z,94834.09
2023-03-13T16:45:42.338Z,94839.00
2023-03-13T16:47:44.305Z,94844.84
2023-03-13T16:49:47.457Z,94847.41
2023-03-13T16:51:49.186Z,94847.69
2023-03-13T16:53:51.256Z,94852.59
2023-03-13T16:55:52.781Z,94848.97
2023-03-13T16:57:57.762Z,94852.97
2023-03-13T16:59:59.180Z,94846.25
2023-03-13T17:02:00.622Z,94853.56
2023-03-13T17:04:02.240Z,94850.47
2023-03-13T17:06:03.850Z,94853.38
2023-03-13T17:08:05.816Z,94849.41
2023-03-13T17:10:14.758Z,94852.47
2023-03-13T17:12:16.527Z,94852.28
2023-03-13T17:14:17.947Z,94866.78
2023-03-13T17:16:24.020Z,94860.19
2023-03-13T17:18:25.512Z,94867.81
2023-03-13T17:20:28.187Z,94866.47
2023-03-13T17:22:29.658Z,94859.63
2023-03-13T17:24:31.115Z,94867.78
2023-03-13T17:26:33.531Z,94859.25
2023-03-13T17:28:35.042Z,94870.00
2023-03-13T17:30:36.532Z,94863.28
2023-03-13T17:32:38.089Z,94862.75
2023-03-13T17:34:40.045Z,94862.06
2023-03-13T17:36:41.815Z,94868.84
2023-03-13T17:38:43.465Z,94873.69
2023-03-13T17:40:44.931Z,94875.56
2023-03-13T17:42:46.434Z,94876.44
2023-03-13T17:44:48.023Z,94875.75
2023-03-13T17:46:51.144Z,94877.41
2023-03-13T17:48:53.175Z,94883.97
2023-03-13T17:50:54.604Z,94882.88
2023-03-13T17:52:56.369Z,94879.00
2023-03-13T17:54:57.903Z,94882.28
2023-03-13T17:56:59.343Z,94881.88
2023-03-13T17:59:00.877Z,94890.53
2023-03-13T18:01:02.342Z,94887.94
2023-03-13T18:03:03.970Z,94884.78
2023-03-13T18:05:05.802Z,94878.88
2023-03-13T18:07:17.561Z,94882.59
2023-03-13T18:09:20.762Z,94875.88
2023-03-13T18:11:23.322Z,94875.88
2023-03-13T18:13:24.747Z,94881.09
2023-03-13T18:15:26.310Z,94883.03
2023-03-13T18:17:28.015Z,94870.09
2023-03-13T18:19:29.461Z,94879.56
2023-03-13T18:21:30.990Z,94878.06
2023-03-13T18:23:32.454Z,94877.13
2023-03-13T18:25:34.103Z,94884.28
2023-03-13T18:27:35.777Z,94885.66
2023-03-13T18:29:37.251Z,94880.56
2023-03-13T18:31:41.771Z,94892.00
2023-03-13T18:33:43.398Z,94886.91
2023-03-13T18:35:44.934Z,94892.19
2023-03-13T18:37:47.022Z,94891.94
2023-03-13T18:39:50.086Z,94891.81
2023-03-13T18:41:52.792Z,94888.09
2023-03-13T18:43:54.460Z,94906.03
2023-03-13T18:45:55.984Z,94903.13
2023-03-13T18:47:57.480Z,94901.84
2023-03-13T18:49:59.117Z,94903.25
2023-03-13T18:52:00.634Z,94898.91
2023-03-13T18:54:02.065Z,94903.72
2023-03-13T18:56:06.235Z,94907.03
2023-03-13T18:58:10.144Z,94905.13
2023-03-13T19:00:19.303Z,94902.94
2023-03-13T19:02:21.043Z,94914.75
2023-03-13T19:04:22.573Z,94915.84
2023-03-13T19:06:25.235Z,94912.97
2023-03-13T19:08:26.757Z,94911.19
2023-03-13T19:10:29.482Z,94902.25
2023-03-13T19:12:31.043Z,94900.63
2023-03-13T19:14:32.665Z,94908.44
2023-03-13T19:16:45.325Z,94912.56
2023-03-13T19:18:47.100Z,94912.13
2023-03-13T19:20:49.962Z,94912.13
2023-03-13T19:22:51.425Z,94924.25
2023-03-13T19:24:53.090Z,94917.34
2023-03-13T19:26:58.623Z,94910.50
2023-03-13T19:29:00.311Z,94914.34
2023-03-13T19:31:01.736Z,94915.31
2023-03-13T19:33:03.269Z,94913.63
2023-03-13T19:35:04.957Z,94915.44
2023-03-13T19:37:06.406Z,94915.44
2023-03-13T19:39:13.243Z,94916.66
2023-03-13T19:41:15.202Z,94922.88
2023-03-13T19:43:16.655Z,94932.59
2023-03-13T19:45:19.194Z,94922.88
2023-03-13T19:47:20.654Z,94919.13
2023-03-13T19:49:22.052Z,94917.06
2023-03-13T19:51:23.837Z,94923.38
2023-03-13T19:53:25.324Z,94922.84
2023-03-13T19:55:26.805Z,94915.97
2023-03-13T19:57:28.269Z,94920.63
2023-03-13T19:59:31.951Z,94921.47
2023-03-13T20:01:33.490Z,94919.69
2023-03-13T20:03:34.931Z,94925.84
2023-03-13T20:05:36.833Z,94930.94
2023-03-13T20:07:38.450Z,94927.50
2023-03-13T20:09:39.950Z,94925.31
2023-03-13T20:11:41.492Z,94928.31
2023-03-13T20:13:43.214Z,94930.38
2023-03-13T20:15:44.878Z,94931.03
2023-03-13T20:17:46.491Z,94928.81
2023-03-13T20:19:48.180Z,94925.69
2023-03-13T20:21:49.642Z,94927.97
2023-03-13T20:23:51.403Z,94923.75
2023-03-13T20:25:52.941Z,94916.03
2023-03-13T20:27:54.614Z,94922.63
2023-03-13T20:29:56.143Z,94926.75
2023-03-13T20:32:01.378Z,94924.44
2023-03-13T20:34:02.883Z,94926.06
2023-03-13T20:36:09.427Z,94921.81
2023-03-13T20:38:11.050Z,94927.97
2023-03-13T20:40:12.782Z,94923.75
2023-03-13T20:42:16.545Z,94917.81
2023-03-13T20:44:18.248Z,94915.00
2023-03-13T20:46:20.056Z,94910.13
2023-03-13T20:48:21.704Z,94908.91
2023-03-13T20:50:23.388Z,94908.78
2023-03-13T20:52:24.805Z,94907.00
2023-03-13T20:54:26.265Z,94902.09
2023-03-13T20:56:28.038Z,94894.97
2023-03-13T20:58:29.513Z,94891.41
2023-03-13T21:00:31.089Z,94893.06
2023-03-13T21:02:33.132Z,94886.88
2023-03-13T21:04:34.589Z,94894.69
2023-03-13T21:06:36.055Z,94896.75
2023-03-13T21:08:38.640Z,94883.97
2023-03-13T21:10:40.681Z,94882.28
2023-03-13T21:12:42.132Z,94887.91
2023-03-13T21:14:44.194Z,94885.28
2023-03-13T21:16:45.714Z,94874.88
2023-03-13T21:18:47.574Z,94879.97
2023-03-13T21:20:49.172Z,94871.47
2023-03-13T21:22:50.663Z,94870.38
2023-03-13T21:24:52.099Z,94861.88
2023-03-13T21:26:55.101Z,94872.16
2023-03-13T21:28:56.650Z,94868.28
2023-03-13T21:30:58.263Z,94873.50
2023-03-13T21:32:59.850Z,94865.56
2023-03-13T21:35:01.410Z,94886.50
2023-03-13T21:37:02.919Z,94885.00
2023-03-13T21:39:08.035Z,94889.63
2023-03-13T21:41:14.542Z,94884.59
2023-03-13T21:43:16.000Z,94888.00
2023-03-13T21:45:17.432Z,94888.81
2023-03-13T21:47:24.297Z,94884.00
2023-03-13T21:49:25.976Z,94887.81
2023-03-13T21:51:27.654Z,94887.59
2023-03-13T21:53:29.129Z,94885.78
2023-03-13T21:55:31.759Z,94878.94
2023-03-13T21:57:33.359Z,94880.91
2023-03-13T21:59:34.874Z,94879.56
2023-03-13T22:01:36.564Z,94876.97
2023-03-13T22:03:38.308Z,94872.97
2023-03-13T22:05:40.677Z,94872.25
2023-03-13T22:07:42.411Z,94872.97
2023-03-13T22:09:43.973Z,94873.22
2023-03-13T22:11:45.497Z,94876.69
2023-03-13T22:13:47.016Z,94882.56
2023-03-13T22:15:48.538Z,94877.38
2023-03-13T22:17:49.986Z,94878.38
2023-03-13T22:19:51.532Z,94870.69
2023-03-13T22:21:53.037Z,94869.22
2023-03-13T22:23:54.481Z,94867.88
2023-03-13T22:25:56.567Z,94861.03
2023-03-13T22:27:58.052Z,94869.66
2023-03-13T22:29:59.581Z,94870.47
2023-03-13T22:32:01.651Z,94856.41
2023-03-13T22:34:03.398Z,94867.28
2023-03-13T22:36:05.085Z,94863.91
2023-03-13T22:38:06.680Z,94856.66
2023-03-13T22:40:08.476Z,94863.53
2023-03-13T22:42:09.905Z,94862.00
2023-03-13T22:44:11.386Z,94867.06
2023-03-13T22:46:12.894Z,94862.81
2023-03-13T22:48:14.450Z,94858.72
2023-03-13T22:50:16.028Z,94859.53
2023-03-13T22:52:17.610Z,94856.94
2023-03-13T22:54:19.082Z,94864.72
2023-03-13T22:56:20.557Z,94854.34
2023-03-13T22:58:22.077Z,94861.69
2023-03-13T23:00:23.489Z,94860.03
2023-03-13T23:02:25.283Z,94859.22
2023-03-13T23:04:26.803Z,94856.50
2023-03-13T23:06:28.517Z,94857.94
2023-03-13T23:08:29.958Z,94857.38
2023-03-13T23:10:31.418Z,94858.06
2023-03-13T23:12:33.261Z,94866.41
2023-03-13T23:14:34.852Z,94861.38
2023-03-13T23:16:36.649Z,94865.50
2023-03-13T23:18:38.541Z,94867.19
2023-03-13T23:20:40.027Z,94873.69
2023-03-13T23:22:45.201Z,94870.53
2023-03-13T23:24:46.734Z,94872.88
2023-03-13T23:26:48.172Z,94874.28
2023-03-13T23:28:49.657Z,94869.53
2023-03-13T23:30:51.098Z,94879.81
2023-03-13T23:32:52.688Z,94874.22
2023-03-13T23:34:54.283Z,94873.66
2023-03-13T23:36:57.958Z,94870.81
2023-03-13T23:38:59.707Z,94867.94
2023-03-13T23:41:05.037Z,94866.06
2023-03-13T23:43:06.524Z,94863.34
2023-03-13T23:45:09.196Z,94865.44
2023-03-13T23:47:10.706Z,94868.06
2023-03-13T23:49:12.906Z,94864.97
2023-03-13T23:51:14.465Z,94860.84
2023-03-13T23:53:16.093Z,94855.63
2023-03-13T23:55:17.607Z,94848.69
2023-03-13T23:57:19.425Z,94850.13
2023-03-13T23:59:20.968Z,94845.44
